sensor_id;sensor_type;location;lat;lon;timestamp;P1;durP1;ratioP1;P2;durP2;ratioP2
9270;SDS011;4673;53.458;9.940;2022-09-29T00:01:55;11.27;;;11.17;;
9270;SDS011;4673;53.458;9.940;2022-09-29T00:04:21;12.17;;;12.07;;
9270;SDS011;4673;53.458;9.940;2022-09-29T00:06:46;12.17;;;12.07;;
9270;SDS011;4673;53.458;9.940;2022-09-29T00:09:12;11.27;;;11.17;;
9270;SDS011;4673;53.458;9.940;2022-09-29T00:11:38;11.43;;;11.33;;
9270;SDS011;4673;53.458;9.940;2022-09-29T00:14:03;10.70;;;10.60;;
9270;SDS011;4673;53.458;9.940;2022-09-29T00:16:29;11.23;;;11.13;;
9270;SDS011;4673;53.458;9.940;2022-09-29T00:18:55;11.80;;;11.70;;
9270;SDS011;4673;53.458;9.940;2022-09-29T00:21:21;11.60;;;11.50;;
9270;SDS011;4673;53.458;9.940;2022-09-29T00:23:48;9.73;;;9.67;;
9270;SDS011;4673;53.458;9.940;2022-09-29T00:26:15;11.03;;;10.93;;
9270;SDS011;4673;53.458;9.940;2022-09-29T00:28:49;10.17;;;10.10;;
9270;SDS011;4673;53.458;9.940;2022-09-29T00:31:21;10.03;;;10.03;;
9270;SDS011;4673;53.458;9.940;2022-09-29T00:33:47;11.43;;;11.33;;
9270;SDS011;4673;53.458;9.940;2022-09-29T00:36:15;11.17;;;11.07;;
9270;SDS011;4673;53.458;9.940;2022-09-29T00:38:43;10.87;;;10.83;;
9270;SDS011;4673;53.458;9.940;2022-09-29T00:41:14;10.43;;;10.33;;
9270;SDS011;4673;53.458;9.940;2022-09-29T00:43:53;10.13;;;10.07;;
9270;SDS011;4673;53.458;9.940;2022-09-29T00:48:50;10.77;;;10.67;;
9270;SDS011;4673;53.458;9.940;2022-09-29T00:51:18;11.10;;;11.00;;
9270;SDS011;4673;53.458;9.940;2022-09-29T00:53:44;9.67;;;9.67;;
9270;SDS011;4673;53.458;9.940;2022-09-29T00:56:12;10.23;;;10.17;;
9270;SDS011;4673;53.458;9.940;2022-09-29T01:01:09;9.03;;;9.03;;
9270;SDS011;4673;53.458;9.940;2022-09-29T01:03:41;9.70;;;9.60;;
9270;SDS011;4673;53.458;9.940;2022-09-29T01:06:14;9.67;;;9.67;;
9270;SDS011;4673;53.458;9.940;2022-09-29T01:08:52;9.33;;;9.33;;
9270;SDS011;4673;53.458;9.940;2022-09-29T01:11:34;9.33;;;9.23;;
9270;SDS011;4673;53.458;9.940;2022-09-29T01:14:00;8.23;;;8.23;;
9270;SDS011;4673;53.458;9.940;2022-09-29T01:16:30;9.50;;;9.50;;
9270;SDS011;4673;53.458;9.940;2022-09-29T01:18:58;9.33;;;9.33;;
9270;SDS011;4673;53.458;9.940;2022-09-29T01:29:31;9.17;;;9.17;;
9270;SDS011;4673;53.458;9.940;2022-09-29T01:33:03;8.50;;;8.50;;
9270;SDS011;4673;53.458;9.940;2022-09-29T01:35:46;9.13;;;9.13;;
9270;SDS011;4673;53.458;9.940;2022-09-29T01:49:46;9.00;;;9.00;;
9270;SDS011;4673;53.458;9.940;2022-09-29T01:52:24;8.77;;;8.77;;
9270;SDS011;4673;53.458;9.940;2022-09-29T01:55:01;9.27;;;9.27;;
9270;SDS011;4673;53.458;9.940;2022-09-29T01:57:51;9.10;;;9.03;;
9270;SDS011;4673;53.458;9.940;2022-09-29T02:00:38;7.50;;;7.50;;
9270;SDS011;4673;53.458;9.940;2022-09-29T02:05:45;9.47;;;9.37;;
9270;SDS011;4673;53.458;9.940;2022-09-29T02:08:16;10.10;;;10.00;;
9270;SDS011;4673;53.458;9.940;2022-09-29T02:10:51;9.00;;;9.00;;
9270;SDS011;4673;53.458;9.940;2022-09-29T02:13:57;10.30;;;10.20;;
9270;SDS011;4673;53.458;9.940;2022-09-29T02:16:41;9.27;;;9.17;;
9270;SDS011;4673;53.458;9.940;2022-09-29T02:19:18;9.60;;;9.60;;
9270;SDS011;4673;53.458;9.940;2022-09-29T02:21:46;9.47;;;9.37;;
9270;SDS011;4673;53.458;9.940;2022-09-29T02:24:12;10.87;;;10.77;;
9270;SDS011;4673;53.458;9.940;2022-09-29T02:26:38;9.97;;;9.87;;
9270;SDS011;4673;53.458;9.940;2022-09-29T02:29:05;9.90;;;9.83;;
9270;SDS011;4673;53.458;9.940;2022-09-29T02:31:32;9.03;;;9.03;;
9270;SDS011;4673;53.458;9.940;2022-09-29T02:33:59;9.07;;;9.07;;
9270;SDS011;4673;53.458;9.940;2022-09-29T02:44:51;9.80;;;9.80;;
9270;SDS011;4673;53.458;9.940;2022-09-29T02:53:24;8.63;;;8.63;;
9270;SDS011;4673;53.458;9.940;2022-09-29T02:59:14;10.40;;;10.30;;
9270;SDS011;4673;53.458;9.940;2022-09-29T03:01:48;9.70;;;9.70;;
9270;SDS011;4673;53.458;9.940;2022-09-29T03:04:19;8.43;;;8.43;;
9270;SDS011;4673;53.458;9.940;2022-09-29T03:06:46;9.43;;;9.43;;
9270;SDS011;4673;53.458;9.940;2022-09-29T03:09:12;9.70;;;9.70;;
9270;SDS011;4673;53.458;9.940;2022-09-29T03:11:38;9.43;;;9.43;;
9270;SDS011;4673;53.458;9.940;2022-09-29T03:14:03;9.13;;;9.13;;
9270;SDS011;4673;53.458;9.940;2022-09-29T03:16:30;10.10;;;10.10;;
9270;SDS011;4673;53.458;9.940;2022-09-29T03:18:56;10.00;;;10.00;;
9270;SDS011;4673;53.458;9.940;2022-09-29T03:21:22;9.50;;;9.50;;
9270;SDS011;4673;53.458;9.940;2022-09-29T03:23:48;10.10;;;10.10;;
9270;SDS011;4673;53.458;9.940;2022-09-29T03:26:13;9.77;;;9.77;;
9270;SDS011;4673;53.458;9.940;2022-09-29T03:28:39;9.03;;;9.03;;
9270;SDS011;4673;53.458;9.940;2022-09-29T03:31:08;9.63;;;9.63;;
9270;SDS011;4673;53.458;9.940;2022-09-29T03:33:35;9.30;;;9.30;;
9270;SDS011;4673;53.458;9.940;2022-09-29T03:36:02;9.87;;;9.87;;
9270;SDS011;4673;53.458;9.940;2022-09-29T03:38:29;9.20;;;9.20;;
9270;SDS011;4673;53.458;9.940;2022-09-29T03:40:55;10.67;;;10.57;;
9270;SDS011;4673;53.458;9.940;2022-09-29T03:43:21;9.60;;;9.60;;
9270;SDS011;4673;53.458;9.940;2022-09-29T03:45:50;10.20;;;10.20;;
9270;SDS011;4673;53.458;9.940;2022-09-29T03:48:17;11.07;;;10.97;;
9270;SDS011;4673;53.458;9.940;2022-09-29T03:50:44;10.30;;;10.30;;
9270;SDS011;4673;53.458;9.940;2022-09-29T03:53:10;9.83;;;9.73;;
9270;SDS011;4673;53.458;9.940;2022-09-29T03:55:36;9.90;;;9.80;;
9270;SDS011;4673;53.458;9.940;2022-09-29T03:58:02;10.17;;;10.17;;
9270;SDS011;4673;53.458;9.940;2022-09-29T04:00:27;10.00;;;10.00;;
9270;SDS011;4673;53.458;9.940;2022-09-29T04:02:53;10.07;;;9.97;;
9270;SDS011;4673;53.458;9.940;2022-09-29T04:05:19;11.03;;;11.00;;
9270;SDS011;4673;53.458;9.940;2022-09-29T04:07:45;10.63;;;10.53;;
9270;SDS011;4673;53.458;9.940;2022-09-29T04:10:10;10.00;;;10.00;;
9270;SDS011;4673;53.458;9.940;2022-09-29T04:12:36;10.60;;;10.50;;
9270;SDS011;4673;53.458;9.940;2022-09-29T04:15:02;9.67;;;9.67;;
9270;SDS011;4673;53.458;9.940;2022-09-29T04:17:28;10.83;;;10.73;;
9270;SDS011;4673;53.458;9.940;2022-09-29T04:19:53;10.53;;;10.53;;
9270;SDS011;4673;53.458;9.940;2022-09-29T04:22:19;10.63;;;10.53;;
9270;SDS011;4673;53.458;9.940;2022-09-29T04:24:45;11.47;;;11.37;;
9270;SDS011;4673;53.458;9.940;2022-09-29T04:27:12;10.27;;;10.27;;
9270;SDS011;4673;53.458;9.940;2022-09-29T04:29:41;10.43;;;10.43;;
9270;SDS011;4673;53.458;9.940;2022-09-29T04:32:06;11.47;;;11.47;;
9270;SDS011;4673;53.458;9.940;2022-09-29T04:34:32;11.67;;;11.57;;
9270;SDS011;4673;53.458;9.940;2022-09-29T04:36:59;10.77;;;10.77;;
9270;SDS011;4673;53.458;9.940;2022-09-29T04:39:25;11.70;;;11.60;;
9270;SDS011;4673;53.458;9.940;2022-09-29T04:41:51;11.10;;;11.10;;
9270;SDS011;4673;53.458;9.940;2022-09-29T04:44:17;10.83;;;10.83;;
9270;SDS011;4673;53.458;9.940;2022-09-29T04:46:46;10.77;;;10.77;;
9270;SDS011;4673;53.458;9.940;2022-09-29T04:49:13;12.20;;;12.10;;
9270;SDS011;4673;53.458;9.940;2022-09-29T04:51:39;11.97;;;11.87;;
9270;SDS011;4673;53.458;9.940;2022-09-29T04:54:04;12.57;;;12.47;;
9270;SDS011;4673;53.458;9.940;2022-09-29T04:56:30;13.17;;;13.07;;
9270;SDS011;4673;53.458;9.940;2022-09-29T04:58:56;12.70;;;12.60;;
9270;SDS011;4673;53.458;9.940;2022-09-29T05:01:22;12.67;;;12.57;;
9270;SDS011;4673;53.458;9.940;2022-09-29T05:03:48;12.17;;;12.07;;
9270;SDS011;4673;53.458;9.940;2022-09-29T05:06:13;13.20;;;13.10;;
9270;SDS011;4673;53.458;9.940;2022-09-29T05:08:40;13.70;;;13.60;;
9270;SDS011;4673;53.458;9.940;2022-09-29T05:11:06;13.53;;;13.43;;
9270;SDS011;4673;53.458;9.940;2022-09-29T05:13:32;13.60;;;13.50;;
9270;SDS011;4673;53.458;9.940;2022-09-29T05:15:58;14.57;;;14.47;;
9270;SDS011;4673;53.458;9.940;2022-09-29T05:18:24;13.03;;;12.93;;
9270;SDS011;4673;53.458;9.940;2022-09-29T05:20:50;13.80;;;13.70;;
9270;SDS011;4673;53.458;9.940;2022-09-29T05:23:15;13.40;;;13.30;;
9270;SDS011;4673;53.458;9.940;2022-09-29T05:25:41;14.53;;;14.43;;
9270;SDS011;4673;53.458;9.940;2022-09-29T05:28:08;14.87;;;14.77;;
9270;SDS011;4673;53.458;9.940;2022-09-29T05:30:34;14.30;;;14.20;;
9270;SDS011;4673;53.458;9.940;2022-09-29T05:33:01;14.30;;;14.20;;
9270;SDS011;4673;53.458;9.940;2022-09-29T05:35:26;14.83;;;14.73;;
9270;SDS011;4673;53.458;9.940;2022-09-29T05:37:52;16.37;;;16.27;;
9270;SDS011;4673;53.458;9.940;2022-09-29T05:40:17;15.97;;;15.87;;
9270;SDS011;4673;53.458;9.940;2022-09-29T05:42:43;15.70;;;15.60;;
9270;SDS011;4673;53.458;9.940;2022-09-29T05:45:09;15.87;;;15.77;;
9270;SDS011;4673;53.458;9.940;2022-09-29T05:47:36;16.07;;;15.97;;
9270;SDS011;4673;53.458;9.940;2022-09-29T05:50:12;16.53;;;16.43;;
9270;SDS011;4673;53.458;9.940;2022-09-29T05:52:38;16.10;;;16.00;;
9270;SDS011;4673;53.458;9.940;2022-09-29T05:55:04;15.80;;;15.70;;
9270;SDS011;4673;53.458;9.940;2022-09-29T05:57:34;15.90;;;15.80;;
9270;SDS011;4673;53.458;9.940;2022-09-29T05:59:59;17.60;;;17.50;;
9270;SDS011;4673;53.458;9.940;2022-09-29T06:02:26;16.83;;;16.73;;
9270;SDS011;4673;53.458;9.940;2022-09-29T06:04:51;17.47;;;17.37;;
9270;SDS011;4673;53.458;9.940;2022-09-29T06:07:17;17.10;;;17.00;;
9270;SDS011;4673;53.458;9.940;2022-09-29T06:09:42;16.43;;;16.33;;
9270;SDS011;4673;53.458;9.940;2022-09-29T06:12:08;16.70;;;16.60;;
9270;SDS011;4673;53.458;9.940;2022-09-29T06:14:34;16.53;;;16.43;;
9270;SDS011;4673;53.458;9.940;2022-09-29T06:16:59;18.37;;;18.27;;
9270;SDS011;4673;53.458;9.940;2022-09-29T06:19:25;16.83;;;16.73;;
9270;SDS011;4673;53.458;9.940;2022-09-29T06:21:50;17.20;;;17.10;;
9270;SDS011;4673;53.458;9.940;2022-09-29T06:24:16;18.00;;;17.90;;
9270;SDS011;4673;53.458;9.940;2022-09-29T06:26:42;17.40;;;17.30;;
9270;SDS011;4673;53.458;9.940;2022-09-29T06:29:07;16.47;;;16.37;;
9270;SDS011;4673;53.458;9.940;2022-09-29T06:31:33;18.23;;;18.13;;
9270;SDS011;4673;53.458;9.940;2022-09-29T06:33:59;17.70;;;17.60;;
9270;SDS011;4673;53.458;9.940;2022-09-29T06:36:30;17.90;;;17.80;;
9270;SDS011;4673;53.458;9.940;2022-09-29T06:39:18;18.00;;;17.90;;
9270;SDS011;4673;53.458;9.940;2022-09-29T06:41:43;16.83;;;16.73;;
9270;SDS011;4673;53.458;9.940;2022-09-29T06:44:16;16.07;;;15.97;;
9270;SDS011;4673;53.458;9.940;2022-09-29T06:46:41;16.90;;;16.80;;
9270;SDS011;4673;53.458;9.940;2022-09-29T06:49:07;16.40;;;16.30;;
9270;SDS011;4673;53.458;9.940;2022-09-29T06:51:35;15.60;;;15.50;;
9270;SDS011;4673;53.458;9.940;2022-09-29T06:54:01;15.77;;;15.67;;
9270;SDS011;4673;53.458;9.940;2022-09-29T06:56:27;15.37;;;15.27;;
9270;SDS011;4673;53.458;9.940;2022-09-29T06:58:53;15.43;;;15.33;;
9270;SDS011;4673;53.458;9.940;2022-09-29T07:01:19;14.17;;;14.10;;
9270;SDS011;4673;53.458;9.940;2022-09-29T07:03:44;15.03;;;14.93;;
9270;SDS011;4673;53.458;9.940;2022-09-29T07:06:10;13.30;;;13.20;;
9270;SDS011;4673;53.458;9.940;2022-09-29T07:08:36;12.50;;;12.50;;
9270;SDS011;4673;53.458;9.940;2022-09-29T07:11:06;13.33;;;13.23;;
9270;SDS011;4673;53.458;9.940;2022-09-29T07:13:33;13.87;;;13.80;;
9270;SDS011;4673;53.458;9.940;2022-09-29T07:16:03;13.00;;;12.97;;
9270;SDS011;4673;53.458;9.940;2022-09-29T07:18:30;13.30;;;13.20;;
9270;SDS011;4673;53.458;9.940;2022-09-29T07:20:58;13.33;;;13.33;;
9270;SDS011;4673;53.458;9.940;2022-09-29T07:23:24;12.33;;;12.30;;
9270;SDS011;4673;53.458;9.940;2022-09-29T07:25:50;14.93;;;14.83;;
9270;SDS011;4673;53.458;9.940;2022-09-29T07:28:16;13.07;;;13.07;;
9270;SDS011;4673;53.458;9.940;2022-09-29T07:30:42;13.23;;;13.23;;
9270;SDS011;4673;53.458;9.940;2022-09-29T07:33:07;12.53;;;12.43;;
9270;SDS011;4673;53.458;9.940;2022-09-29T07:35:33;13.40;;;13.30;;
9270;SDS011;4673;53.458;9.940;2022-09-29T07:37:59;12.70;;;12.70;;
9270;SDS011;4673;53.458;9.940;2022-09-29T07:40:24;12.53;;;12.53;;
9270;SDS011;4673;53.458;9.940;2022-09-29T07:42:52;11.57;;;11.57;;
9270;SDS011;4673;53.458;9.940;2022-09-29T07:45:17;11.30;;;11.30;;
9270;SDS011;4673;53.458;9.940;2022-09-29T07:47:44;10.63;;;10.63;;
9270;SDS011;4673;53.458;9.940;2022-09-29T07:50:10;10.67;;;10.60;;
9270;SDS011;4673;53.458;9.940;2022-09-29T07:52:36;10.37;;;10.37;;
9270;SDS011;4673;53.458;9.940;2022-09-29T07:55:02;10.63;;;10.63;;
9270;SDS011;4673;53.458;9.940;2022-09-29T07:57:28;9.67;;;9.67;;
9270;SDS011;4673;53.458;9.940;2022-09-29T07:59:54;8.90;;;8.90;;
9270;SDS011;4673;53.458;9.940;2022-09-29T08:02:22;8.80;;;8.80;;
9270;SDS011;4673;53.458;9.940;2022-09-29T08:04:48;8.40;;;8.40;;
9270;SDS011;4673;53.458;9.940;2022-09-29T08:07:14;8.97;;;8.97;;
9270;SDS011;4673;53.458;9.940;2022-09-29T08:09:39;8.17;;;8.17;;
9270;SDS011;4673;53.458;9.940;2022-09-29T08:12:05;8.63;;;8.63;;
9270;SDS011;4673;53.458;9.940;2022-09-29T08:14:32;8.37;;;8.37;;
9270;SDS011;4673;53.458;9.940;2022-09-29T08:16:57;8.00;;;8.00;;
9270;SDS011;4673;53.458;9.940;2022-09-29T08:19:23;7.93;;;7.93;;
9270;SDS011;4673;53.458;9.940;2022-09-29T08:21:49;7.40;;;7.40;;
9270;SDS011;4673;53.458;9.940;2022-09-29T08:24:15;8.20;;;8.20;;
9270;SDS011;4673;53.458;9.940;2022-09-29T08:26:44;8.90;;;8.90;;
9270;SDS011;4673;53.458;9.940;2022-09-29T08:29:10;8.47;;;8.47;;
9270;SDS011;4673;53.458;9.940;2022-09-29T08:31:37;8.70;;;8.70;;
9270;SDS011;4673;53.458;9.940;2022-09-29T08:34:02;9.07;;;9.07;;
9270;SDS011;4673;53.458;9.940;2022-09-29T08:36:28;9.83;;;9.83;;
9270;SDS011;4673;53.458;9.940;2022-09-29T08:38:55;9.30;;;9.30;;
9270;SDS011;4673;53.458;9.940;2022-09-29T08:44:16;8.77;;;8.77;;
9270;SDS011;4673;53.458;9.940;2022-09-29T08:46:53;8.00;;;8.00;;
9270;SDS011;4673;53.458;9.940;2022-09-29T08:49:24;7.68;;;7.68;;
9270;SDS011;4673;53.458;9.940;2022-09-29T08:51:57;7.10;;;7.10;;
9270;SDS011;4673;53.458;9.940;2022-09-29T08:54:33;7.80;;;7.80;;
9270;SDS011;4673;53.458;9.940;2022-09-29T08:57:02;9.07;;;9.07;;
9270;SDS011;4673;53.458;9.940;2022-09-29T08:59:30;8.73;;;8.73;;
9270;SDS011;4673;53.458;9.940;2022-09-29T09:10:32;11.15;;;11.15;;
9270;SDS011;4673;53.458;9.940;2022-09-29T09:23:31;8.52;;;8.52;;
9270;SDS011;4673;53.458;9.940;2022-09-29T09:26:01;8.77;;;8.73;;
9270;SDS011;4673;53.458;9.940;2022-09-29T09:36:56;9.43;;;9.43;;
9270;SDS011;4673;53.458;9.940;2022-09-29T09:39:33;8.48;;;8.48;;
9270;SDS011;4673;53.458;9.940;2022-09-29T09:42:10;8.15;;;8.15;;
9270;SDS011;4673;53.458;9.940;2022-09-29T09:44:41;8.23;;;8.23;;
9270;SDS011;4673;53.458;9.940;2022-09-29T09:47:32;7.40;;;7.40;;
9270;SDS011;4673;53.458;9.940;2022-09-29T09:50:07;8.20;;;8.20;;
9270;SDS011;4673;53.458;9.940;2022-09-29T09:52:48;7.15;;;7.15;;
9270;SDS011;4673;53.458;9.940;2022-09-29T09:55:17;6.80;;;6.80;;
9270;SDS011;4673;53.458;9.940;2022-09-29T10:00:45;6.65;;;6.65;;
9270;SDS011;4673;53.458;9.940;2022-09-29T10:03:16;6.72;;;6.72;;
9270;SDS011;4673;53.458;9.940;2022-09-29T10:05:46;6.95;;;6.95;;
9270;SDS011;4673;53.458;9.940;2022-09-29T10:08:29;6.07;;;6.07;;
9270;SDS011;4673;53.458;9.940;2022-09-29T10:11:19;6.65;;;6.65;;
9270;SDS011;4673;53.458;9.940;2022-09-29T10:13:49;7.53;;;7.53;;
9270;SDS011;4673;53.458;9.940;2022-09-29T10:16:27;6.70;;;6.70;;
9270;SDS011;4673;53.458;9.940;2022-09-29T10:18:59;6.50;;;6.50;;
9270;SDS011;4673;53.458;9.940;2022-09-29T10:23:57;7.13;;;7.13;;
9270;SDS011;4673;53.458;9.940;2022-09-29T10:26:26;7.75;;;7.75;;
9270;SDS011;4673;53.458;9.940;2022-09-29T10:28:54;7.30;;;7.30;;
9270;SDS011;4673;53.458;9.940;2022-09-29T10:34:01;7.78;;;7.78;;
9270;SDS011;4673;53.458;9.940;2022-09-29T10:36:47;7.55;;;7.55;;
9270;SDS011;4673;53.458;9.940;2022-09-29T10:44:48;6.60;;;6.60;;
9270;SDS011;4673;53.458;9.940;2022-09-29T10:47:16;7.10;;;7.10;;
9270;SDS011;4673;53.458;9.940;2022-09-29T10:49:41;7.00;;;7.00;;
9270;SDS011;4673;53.458;9.940;2022-09-29T10:52:20;6.75;;;6.75;;
9270;SDS011;4673;53.458;9.940;2022-09-29T10:54:58;7.60;;;7.60;;
9270;SDS011;4673;53.458;9.940;2022-09-29T10:57:30;6.65;;;6.65;;
9270;SDS011;4673;53.458;9.940;2022-09-29T10:59:58;7.07;;;7.07;;
9270;SDS011;4673;53.458;9.940;2022-09-29T11:04:59;8.48;;;8.48;;
9270;SDS011;4673;53.458;9.940;2022-09-29T11:07:46;8.02;;;8.02;;
9270;SDS011;4673;53.458;9.940;2022-09-29T11:10:26;7.00;;;7.00;;
9270;SDS011;4673;53.458;9.940;2022-09-29T11:12:54;8.10;;;8.10;;
9270;SDS011;4673;53.458;9.940;2022-09-29T11:15:27;8.68;;;8.68;;
9270;SDS011;4673;53.458;9.940;2022-09-29T11:17:54;7.82;;;7.82;;
9270;SDS011;4673;53.458;9.940;2022-09-29T11:20:22;7.85;;;7.85;;
9270;SDS011;4673;53.458;9.940;2022-09-29T11:25:44;7.68;;;7.68;;
9270;SDS011;4673;53.458;9.940;2022-09-29T11:28:40;7.57;;;7.57;;
9270;SDS011;4673;53.458;9.940;2022-09-29T11:31:15;8.82;;;8.82;;
9270;SDS011;4673;53.458;9.940;2022-09-29T11:36:52;9.00;;;9.00;;
9270;SDS011;4673;53.458;9.940;2022-09-29T11:42:21;7.70;;;7.70;;
9270;SDS011;4673;53.458;9.940;2022-09-29T12:01:00;9.75;;;9.75;;
9270;SDS011;4673;53.458;9.940;2022-09-29T12:17:17;10.30;;;10.30;;
9270;SDS011;4673;53.458;9.940;2022-09-29T12:19:46;12.05;;;12.05;;
9270;SDS011;4673;53.458;9.940;2022-09-29T12:22:17;10.43;;;10.43;;
9270;SDS011;4673;53.458;9.940;2022-09-29T12:24:50;10.80;;;10.80;;
9270;SDS011;4673;53.458;9.940;2022-09-29T12:27:31;10.52;;;10.52;;
9270;SDS011;4673;53.458;9.940;2022-09-29T12:30:13;11.85;;;11.85;;
9270;SDS011;4673;53.458;9.940;2022-09-29T12:33:04;11.00;;;11.00;;
9270;SDS011;4673;53.458;9.940;2022-09-29T12:41:15;9.90;;;9.90;;
9270;SDS011;4673;53.458;9.940;2022-09-29T12:46:37;9.80;;;9.80;;
9270;SDS011;4673;53.458;9.940;2022-09-29T12:49:17;10.50;;;10.50;;
9270;SDS011;4673;53.458;9.940;2022-09-29T12:52:16;10.57;;;10.57;;
9270;SDS011;4673;53.458;9.940;2022-09-29T12:54:53;9.77;;;9.77;;
9270;SDS011;4673;53.458;9.940;2022-09-29T12:57:29;10.30;;;10.30;;
9270;SDS011;4673;53.458;9.940;2022-09-29T13:00:03;9.93;;;9.93;;
9270;SDS011;4673;53.458;9.940;2022-09-29T13:17:25;10.32;;;10.32;;
9270;SDS011;4673;53.458;9.940;2022-09-29T13:22:28;11.30;;;11.27;;
9270;SDS011;4673;53.458;9.940;2022-09-29T13:25:15;10.43;;;10.43;;
9270;SDS011;4673;53.458;9.940;2022-09-29T13:27:52;10.70;;;10.70;;
9270;SDS011;4673;53.458;9.940;2022-09-29T13:30:21;9.68;;;9.68;;
9270;SDS011;4673;53.458;9.940;2022-09-29T13:33:00;9.77;;;9.77;;
9270;SDS011;4673;53.458;9.940;2022-09-29T13:35:36;8.00;;;8.00;;
9270;SDS011;4673;53.458;9.940;2022-09-29T13:38:07;7.65;;;7.65;;
9270;SDS011;4673;53.458;9.940;2022-09-29T13:51:46;6.82;;;6.82;;
9270;SDS011;4673;53.458;9.940;2022-09-29T13:54:22;6.38;;;6.38;;
9270;SDS011;4673;53.458;9.940;2022-09-29T13:59:45;5.57;;;5.57;;
9270;SDS011;4673;53.458;9.940;2022-09-29T14:02:34;5.63;;;5.63;;
9270;SDS011;4673;53.458;9.940;2022-09-29T14:05:00;5.25;;;5.25;;
9270;SDS011;4673;53.458;9.940;2022-09-29T14:13:00;4.63;;;4.63;;
9270;SDS011;4673;53.458;9.940;2022-09-29T14:15:34;4.95;;;4.95;;
9270;SDS011;4673;53.458;9.940;2022-09-29T14:18:30;4.45;;;4.45;;
9270;SDS011;4673;53.458;9.940;2022-09-29T14:21:04;3.90;;;3.90;;
9270;SDS011;4673;53.458;9.940;2022-09-29T14:29:12;4.25;;;4.25;;
9270;SDS011;4673;53.458;9.940;2022-09-29T14:31:52;4.50;;;4.50;;
9270;SDS011;4673;53.458;9.940;2022-09-29T14:34:21;4.03;;;4.03;;
9270;SDS011;4673;53.458;9.940;2022-09-29T14:36:50;4.90;;;4.90;;
9270;SDS011;4673;53.458;9.940;2022-09-29T14:39:17;5.32;;;5.32;;
9270;SDS011;4673;53.458;9.940;2022-09-29T14:41:45;5.13;;;5.13;;
9270;SDS011;4673;53.458;9.940;2022-09-29T14:44:23;6.23;;;6.23;;
9270;SDS011;4673;53.458;9.940;2022-09-29T14:51:12;5.63;;;5.63;;
9270;SDS011;4673;53.458;9.940;2022-09-29T15:01:39;12.10;;;12.05;;
9270;SDS011;4673;53.458;9.940;2022-09-29T15:04:31;5.78;;;5.78;;
9270;SDS011;4673;53.458;9.940;2022-09-29T15:07:02;3.43;;;3.43;;
9270;SDS011;4673;53.458;9.940;2022-09-29T15:09:33;8.82;;;8.82;;
9270;SDS011;4673;53.458;9.940;2022-09-29T15:12:00;2.93;;;2.93;;
9270;SDS011;4673;53.458;9.940;2022-09-29T15:14:30;7.90;;;7.90;;
9270;SDS011;4673;53.458;9.940;2022-09-29T15:27:52;7.87;;;7.87;;
9270;SDS011;4673;53.458;9.940;2022-09-29T15:30:19;5.80;;;5.80;;
9270;SDS011;4673;53.458;9.940;2022-09-29T15:32:47;5.27;;;5.27;;
9270;SDS011;4673;53.458;9.940;2022-09-29T15:35:24;7.43;;;7.43;;
9270;SDS011;4673;53.458;9.940;2022-09-29T15:40:24;4.97;;;4.97;;
9270;SDS011;4673;53.458;9.940;2022-09-29T15:42:51;5.70;;;5.70;;
9270;SDS011;4673;53.458;9.940;2022-09-29T15:45:23;5.03;;;5.03;;
9270;SDS011;4673;53.458;9.940;2022-09-29T15:48:04;4.90;;;4.90;;
9270;SDS011;4673;53.458;9.940;2022-09-29T15:50:32;5.23;;;5.23;;
9270;SDS011;4673;53.458;9.940;2022-09-29T15:53:05;6.23;;;6.23;;
9270;SDS011;4673;53.458;9.940;2022-09-29T15:55:33;5.20;;;5.20;;
9270;SDS011;4673;53.458;9.940;2022-09-29T15:57:58;5.53;;;5.53;;
9270;SDS011;4673;53.458;9.940;2022-09-29T16:05:44;5.67;;;5.67;;
9270;SDS011;4673;53.458;9.940;2022-09-29T16:08:18;5.80;;;5.80;;
9270;SDS011;4673;53.458;9.940;2022-09-29T16:13:20;5.80;;;5.80;;
9270;SDS011;4673;53.458;9.940;2022-09-29T16:15:50;5.70;;;5.70;;
9270;SDS011;4673;53.458;9.940;2022-09-29T16:18:22;6.03;;;6.03;;
9270;SDS011;4673;53.458;9.940;2022-09-29T16:20:57;5.53;;;5.53;;
9270;SDS011;4673;53.458;9.940;2022-09-29T16:23:25;6.27;;;6.27;;
9270;SDS011;4673;53.458;9.940;2022-09-29T16:28:31;5.70;;;5.70;;
9270;SDS011;4673;53.458;9.940;2022-09-29T16:31:02;6.37;;;6.37;;
9270;SDS011;4673;53.458;9.940;2022-09-29T16:33:45;6.43;;;6.43;;
9270;SDS011;4673;53.458;9.940;2022-09-29T16:36:18;6.60;;;6.60;;
9270;SDS011;4673;53.458;9.940;2022-09-29T16:38:47;7.93;;;7.93;;
9270;SDS011;4673;53.458;9.940;2022-09-29T16:44:05;7.10;;;7.10;;
9270;SDS011;4673;53.458;9.940;2022-09-29T16:49:15;8.17;;;8.17;;
9270;SDS011;4673;53.458;9.940;2022-09-29T16:51:45;8.40;;;8.40;;
9270;SDS011;4673;53.458;9.940;2022-09-29T16:54:16;7.57;;;7.57;;
9270;SDS011;4673;53.458;9.940;2022-09-29T16:56:48;7.80;;;7.80;;
9270;SDS011;4673;53.458;9.940;2022-09-29T16:59:34;7.50;;;7.50;;
9270;SDS011;4673;53.458;9.940;2022-09-29T17:02:00;8.40;;;8.40;;
9270;SDS011;4673;53.458;9.940;2022-09-29T17:04:26;8.17;;;8.17;;
9270;SDS011;4673;53.458;9.940;2022-09-29T17:06:51;9.10;;;9.10;;
9270;SDS011;4673;53.458;9.940;2022-09-29T17:09:18;8.20;;;8.20;;
9270;SDS011;4673;53.458;9.940;2022-09-29T17:11:46;8.50;;;8.50;;
9270;SDS011;4673;53.458;9.940;2022-09-29T17:14:13;8.87;;;8.87;;
9270;SDS011;4673;53.458;9.940;2022-09-29T17:16:39;8.70;;;8.70;;
9270;SDS011;4673;53.458;9.940;2022-09-29T17:19:07;8.93;;;8.93;;
9270;SDS011;4673;53.458;9.940;2022-09-29T17:21:34;8.00;;;8.00;;
9270;SDS011;4673;53.458;9.940;2022-09-29T17:24:00;7.90;;;7.90;;
9270;SDS011;4673;53.458;9.940;2022-09-29T17:26:34;8.73;;;8.73;;
9270;SDS011;4673;53.458;9.940;2022-09-29T17:29:18;8.63;;;8.63;;
9270;SDS011;4673;53.458;9.940;2022-09-29T17:31:44;8.23;;;8.23;;
9270;SDS011;4673;53.458;9.940;2022-09-29T17:34:10;8.30;;;8.30;;
9270;SDS011;4673;53.458;9.940;2022-09-29T17:36:35;8.93;;;8.93;;
9270;SDS011;4673;53.458;9.940;2022-09-29T17:39:02;9.30;;;9.30;;
9270;SDS011;4673;53.458;9.940;2022-09-29T17:41:28;8.77;;;8.77;;
9270;SDS011;4673;53.458;9.940;2022-09-29T17:43:54;10.97;;;10.97;;
9270;SDS011;4673;53.458;9.940;2022-09-29T17:46:19;9.57;;;9.57;;
9270;SDS011;4673;53.458;9.940;2022-09-29T17:48:45;10.27;;;10.27;;
9270;SDS011;4673;53.458;9.940;2022-09-29T17:51:12;10.40;;;10.40;;
9270;SDS011;4673;53.458;9.940;2022-09-29T17:53:40;10.50;;;10.50;;
9270;SDS011;4673;53.458;9.940;2022-09-29T17:56:08;11.93;;;11.83;;
9270;SDS011;4673;53.458;9.940;2022-09-29T17:58:50;10.93;;;10.93;;
9270;SDS011;4673;53.458;9.940;2022-09-29T18:01:22;11.10;;;11.10;;
9270;SDS011;4673;53.458;9.940;2022-09-29T18:03:50;9.43;;;9.43;;
9270;SDS011;4673;53.458;9.940;2022-09-29T18:06:20;9.67;;;9.67;;
9270;SDS011;4673;53.458;9.940;2022-09-29T18:08:49;10.80;;;10.80;;
9270;SDS011;4673;53.458;9.940;2022-09-29T18:11:16;9.60;;;9.60;;
9270;SDS011;4673;53.458;9.940;2022-09-29T18:13:43;10.40;;;10.40;;
9270;SDS011;4673;53.458;9.940;2022-09-29T18:16:13;9.63;;;9.63;;
9270;SDS011;4673;53.458;9.940;2022-09-29T18:18:40;10.30;;;10.30;;
9270;SDS011;4673;53.458;9.940;2022-09-29T18:21:06;10.20;;;10.20;;
9270;SDS011;4673;53.458;9.940;2022-09-29T18:23:32;10.13;;;10.13;;
9270;SDS011;4673;53.458;9.940;2022-09-29T18:25:59;9.33;;;9.33;;
9270;SDS011;4673;53.458;9.940;2022-09-29T18:28:25;9.23;;;9.23;;
9270;SDS011;4673;53.458;9.940;2022-09-29T18:30:56;9.67;;;9.67;;
9270;SDS011;4673;53.458;9.940;2022-09-29T18:33:29;8.67;;;8.67;;
9270;SDS011;4673;53.458;9.940;2022-09-29T18:35:55;9.03;;;9.03;;
9270;SDS011;4673;53.458;9.940;2022-09-29T18:38:21;8.20;;;8.20;;
9270;SDS011;4673;53.458;9.940;2022-09-29T18:40:47;8.70;;;8.70;;
9270;SDS011;4673;53.458;9.940;2022-09-29T18:43:14;8.13;;;8.13;;
9270;SDS011;4673;53.458;9.940;2022-09-29T18:45:41;8.37;;;8.37;;
9270;SDS011;4673;53.458;9.940;2022-09-29T18:48:11;8.30;;;8.30;;
9270;SDS011;4673;53.458;9.940;2022-09-29T18:50:42;8.00;;;8.00;;
9270;SDS011;4673;53.458;9.940;2022-09-29T18:53:12;8.10;;;8.10;;
9270;SDS011;4673;53.458;9.940;2022-09-29T18:55:40;7.93;;;7.93;;
9270;SDS011;4673;53.458;9.940;2022-09-29T18:58:08;7.30;;;7.30;;
9270;SDS011;4673;53.458;9.940;2022-09-29T19:00:44;6.87;;;6.87;;
9270;SDS011;4673;53.458;9.940;2022-09-29T19:03:19;6.97;;;6.97;;